createdAt,value
2017-06-28T07:13:02.669Z,4308
2017-06-28T07:14:04.720Z,364
2017-06-28T07:15:06.777Z,344
2017-06-28T07:16:08.828Z,328
2017-06-28T07:17:10.867Z,320
2017-06-28T07:18:12.930Z,308
2017-06-28T07:19:15.008Z,304
2017-06-28T07:20:17.060Z,308
2017-06-28T07:21:19.467Z,320
2017-06-28T07:22:21.523Z,308
2017-06-28T07:23:23.573Z,308
2017-06-28T07:24:25.627Z,292
2017-06-28T07:25:27.702Z,304
2017-06-28T07:26:29.804Z,308
2017-06-28T07:27:31.856Z,308
2017-06-28T07:28:33.907Z,308
2017-06-28T07:29:36.304Z,288
2017-06-28T07:30:38.370Z,272
2017-06-28T07:31:40.466Z,304
2017-06-28T07:32:42.521Z,304
2017-06-28T07:33:44.589Z,300
2017-06-28T07:34:46.661Z,304
2017-06-28T07:35:48.909Z,300
2017-06-28T07:36:51.497Z,300
2017-06-28T07:37:53.574Z,304
2017-06-28T07:38:55.840Z,304
2017-06-28T07:39:57.922Z,308
2017-06-28T07:41:00.322Z,304
2017-06-28T07:42:02.399Z,316
2017-06-28T07:43:04.804Z,340
2017-06-28T07:44:06.862Z,348
2017-06-28T07:45:08.943Z,352
2017-06-28T07:46:11.011Z,320
2017-06-28T07:47:13.074Z,300
2017-06-28T07:48:15.143Z,280
2017-06-28T07:49:18.246Z,292
2017-06-28T07:50:20.365Z,280
2017-06-28T07:51:22.773Z,248
2017-06-28T07:52:24.815Z,240
2017-06-28T07:53:26.885Z,268
2017-06-28T07:54:28.978Z,300
2017-06-28T07:55:31.043Z,312
2017-06-28T07:56:33.102Z,296
2017-06-28T07:57:35.167Z,288
2017-06-28T07:58:37.214Z,228
2017-06-28T07:59:39.313Z,264
2017-06-28T08:00:41.393Z,208
2017-06-28T08:01:44.144Z,264
2017-06-28T08:02:46.210Z,260
2017-06-28T08:03:48.265Z,252
2017-06-28T08:04:50.327Z,248
2017-06-28T08:05:52.731Z,228
2017-06-28T08:06:55.340Z,216
2017-06-28T08:07:57.402Z,232
2017-06-28T08:08:59.791Z,228
2017-06-28T08:10:02.209Z,224
2017-06-28T08:11:04.291Z,216
2017-06-28T08:12:06.356Z,208
2017-06-28T08:13:08.419Z,204
2017-06-28T08:14:10.481Z,200
2017-06-28T08:15:12.536Z,192
2017-06-28T08:16:14.602Z,184
2017-06-28T08:17:16.657Z,180
2017-06-28T08:18:18.721Z,184
2017-06-28T08:19:20.793Z,184
2017-06-28T08:20:22.860Z,180
2017-06-28T08:21:25.255Z,180
2017-06-28T08:22:27.315Z,172
2017-06-28T08:23:29.383Z,176
2017-06-28T08:24:31.800Z,188
2017-06-28T08:25:34.207Z,184
2017-06-28T08:26:36.604Z,180
2017-06-28T09:03:48.481Z,49696
2017-06-28T09:04:50.884Z,54304
2017-06-28T09:05:53.292Z,45728
2017-06-28T09:06:55.339Z,42592
2017-06-28T09:07:57.405Z,45440
2017-06-28T09:08:59.459Z,59008
2017-06-28T09:10:01.535Z,75296
2017-06-28T09:11:03.597Z,45696
2017-06-28T09:12:05.659Z,44320
2017-06-28T09:13:07.716Z,45728
2017-06-28T09:14:09.768Z,41184
2017-06-28T09:15:11.828Z,42176
2017-06-28T09:16:13.885Z,40704
2017-06-28T09:17:15.944Z,40896
2017-06-28T09:18:18.048Z,39328
2017-06-28T09:19:20.087Z,38496
2017-06-28T09:20:22.145Z,38080
2017-06-28T09:21:24.213Z,37824
2017-06-28T09:22:26.286Z,37760
2017-06-28T09:23:28.709Z,37184
2017-06-28T09:24:30.770Z,34624
2017-06-28T09:25:32.846Z,33504
2017-06-28T09:26:34.898Z,32832
2017-06-28T09:27:37.316Z,32672
2017-06-28T09:28:39.380Z,32608
2017-06-28T09:29:41.431Z,34016
2017-06-28T09:30:43.834Z,36448
2017-06-28T09:31:45.906Z,39360
2017-06-28T09:32:47.964Z,43136
2017-06-28T09:33:50.030Z,44704
2017-06-28T09:34:52.083Z,44640
2017-06-28T09:35:54.157Z,44288
2017-06-28T09:36:56.227Z,43360
2017-06-28T09:37:58.296Z,43328
2017-06-28T09:39:00.698Z,45792
2017-06-28T09:40:02.766Z,52480
2017-06-28T09:41:04.839Z,59872
2017-06-28T09:42:06.898Z,80384
2017-06-28T09:43:08.961Z,102592
2017-06-28T09:44:11.029Z,77024
2017-06-28T09:45:13.099Z,91232
2017-06-28T09:46:15.165Z,97728
2017-06-28T09:47:17.910Z,99264
2017-06-28T09:48:19.970Z,64064
2017-06-28T09:49:22.043Z,88992
2017-06-28T09:50:24.448Z,91424
2017-06-28T09:51:26.516Z,78496
2017-06-28T09:52:29.055Z,113856
2017-06-28T09:53:34.116Z,82720
2017-06-28T09:54:36.504Z,88512
2017-06-28T09:55:38.534Z,78496
2017-06-28T09:56:40.574Z,77952
2017-06-28T09:57:42.599Z,143456
2017-06-28T09:58:44.633Z,106464
2017-06-28T09:59:46.666Z,76864
2017-06-28T10:00:49.032Z,50496
2017-06-28T10:01:51.064Z,129408
2017-06-28T10:02:53.096Z,111680
2017-06-28T10:03:55.465Z,122880
2017-06-28T10:04:57.489Z,121280
2017-06-28T10:05:59.519Z,110016
2017-06-28T10:07:02.241Z,104256
2017-06-28T10:08:04.278Z,104224
2017-06-28T10:09:06.308Z,108416
2017-06-28T10:10:08.336Z,101056
2017-06-28T10:11:10.370Z,116128
2017-06-28T10:12:12.402Z,115008
2017-06-28T10:13:14.437Z,118752
2017-06-28T10:14:16.511Z,115328
2017-06-28T10:15:19.224Z,118720
2017-06-28T10:16:21.263Z,113472
2017-06-28T10:17:23.294Z,105760
2017-06-28T10:18:25.333Z,108128
2017-06-28T10:19:27.369Z,109344
2017-06-28T10:20:29.401Z,113216
2017-06-28T10:21:31.785Z,111904
2017-06-28T10:22:33.834Z,116960
2017-06-28T10:23:35.865Z,112160
2017-06-28T10:24:37.906Z,99904
2017-06-28T10:25:40.269Z,93376
2017-06-28T10:26:42.310Z,112384
2017-06-28T10:27:44.356Z,121184
2017-06-28T10:28:46.408Z,135072
2017-06-28T10:29:48.440Z,143200
2017-06-28T10:30:50.821Z,142496
2017-06-28T10:31:52.853Z,138464
2017-06-28T10:32:54.886Z,134688
2017-06-28T10:33:56.952Z,135296
2017-06-28T10:34:58.993Z,131424
2017-06-28T10:36:01.027Z,133920
2017-06-28T10:37:03.060Z,139424
2017-06-28T10:38:05.092Z,142656
2017-06-28T10:39:07.131Z,134496
2017-06-28T10:40:09.162Z,132832
2017-06-28T10:41:11.195Z,137600
2017-06-28T10:42:13.570Z,130176
2017-06-28T10:43:15.605Z,127712
2017-06-28T10:44:17.638Z,134272
2017-06-28T10:45:19.673Z,132544
2017-06-28T10:46:22.044Z,130240
2017-06-28T10:47:24.080Z,125344
2017-06-28T10:48:26.113Z,127072
2017-06-28T10:49:28.540Z,122592
2017-06-28T10:50:30.589Z,125824
2017-06-28T10:51:32.625Z,134976
2017-06-28T10:52:34.662Z,131840
2017-06-28T10:53:37.039Z,133504
2017-06-28T10:54:39.074Z,135392
2017-06-28T10:55:41.113Z,131680
2017-06-28T10:56:43.149Z,125856
2017-06-28T10:57:45.187Z,116768
2017-06-28T10:58:47.247Z,122944
2017-06-28T10:59:49.283Z,110976
2017-06-28T11:00:51.316Z,95776
2017-06-28T11:01:53.350Z,88640
2017-06-28T11:02:55.385Z,67936
2017-06-28T11:03:57.427Z,88800
2017-06-28T11:04:59.467Z,85664
2017-06-28T11:06:01.500Z,121504
2017-06-28T11:07:03.540Z,142240
2017-06-28T11:08:05.573Z,130368
2017-06-28T11:09:07.612Z,107424
2017-06-28T11:10:09.646Z,88032
2017-06-28T11:11:11.682Z,102784
2017-06-28T11:12:14.047Z,91136
2017-06-28T11:13:16.088Z,93440
2017-06-28T11:14:18.800Z,127392
2017-06-28T11:15:21.513Z,108896
2017-06-28T11:16:23.882Z,103296
2017-06-28T11:17:25.919Z,81472
2017-06-28T11:18:28.288Z,69664
2017-06-28T11:19:30.353Z,64160
2017-06-28T11:20:32.387Z,81088
2017-06-28T11:21:34.423Z,87328
2017-06-28T11:22:36.815Z,82048
2017-06-28T11:23:39.197Z,84128
2017-06-28T11:24:41.227Z,85792
2017-06-28T11:25:43.601Z,82624
2017-06-28T11:26:45.632Z,75840
2017-06-28T11:27:47.662Z,92768
2017-06-28T11:28:50.033Z,93152
2017-06-28T11:29:52.074Z,70144
2017-06-28T11:30:54.447Z,59136
2017-06-28T11:31:56.477Z,57792
2017-06-28T11:32:58.513Z,59680
2017-06-28T11:34:00.546Z,73408
2017-06-28T11:35:02.579Z,95008
2017-06-28T11:36:04.611Z,88640
2017-06-28T11:37:06.640Z,102720
2017-06-28T11:38:08.675Z,104576
2017-06-28T11:39:10.715Z,114848
2017-06-28T11:40:12.747Z,106080
2017-06-28T11:41:14.783Z,106464
2017-06-28T11:42:16.815Z,97696
2017-06-28T11:43:18.854Z,91072
2017-06-28T11:44:21.221Z,94016
2017-06-28T11:45:23.253Z,94496
2017-06-28T11:46:25.291Z,81024
2017-06-28T11:47:27.330Z,85152
2017-06-28T11:48:29.363Z,99648
2017-06-28T11:49:31.396Z,105408
2017-06-28T11:50:33.452Z,115168
2017-06-28T11:51:35.478Z,113600
2017-06-28T11:52:37.541Z,113344
2017-06-28T11:53:39.581Z,82496
2017-06-28T11:54:41.620Z,91712
2017-06-28T11:55:43.647Z,89920
2017-06-28T11:56:45.678Z,83776
2017-06-28T11:57:47.715Z,88480
2017-06-28T11:58:50.082Z,106176
2017-06-28T11:59:52.123Z,111488
2017-06-28T12:00:54.160Z,109920
2017-06-28T12:01:56.195Z,109536
2017-06-28T12:02:58.576Z,104224
2017-06-28T12:04:00.942Z,99136
2017-06-28T12:05:02.983Z,97504
2017-06-28T12:06:05.012Z,103168
2017-06-28T12:07:07.047Z,105472
2017-06-28T12:08:09.088Z,108256
2017-06-28T12:09:11.127Z,112832
2017-06-28T12:10:13.159Z,118656
2017-06-28T12:11:15.193Z,125440
2017-06-28T12:12:17.223Z,117824
2017-06-28T12:13:19.259Z,111680
2017-06-28T12:14:21.297Z,111840
2017-06-28T12:15:23.679Z,115584
2017-06-28T12:16:25.712Z,112160
2017-06-28T12:17:27.746Z,106368
2017-06-28T12:18:29.780Z,100832
2017-06-28T12:19:31.817Z,95776
2017-06-28T12:20:33.856Z,100320
2017-06-28T12:21:36.246Z,92032
2017-06-28T12:22:38.284Z,105248
2017-06-28T12:23:40.658Z,114944
2017-06-28T12:24:42.701Z,109376
2017-06-28T12:25:44.742Z,112896
2017-06-28T12:26:46.785Z,118304
2017-06-28T12:27:48.817Z,121696
2017-06-28T12:28:50.857Z,125664
2017-06-28T12:29:52.895Z,129024
2017-06-28T12:30:54.938Z,123232
2017-06-28T12:31:56.972Z,124800
2017-06-28T12:32:59.011Z,124192
2017-06-28T12:34:01.388Z,123488
2017-06-28T12:35:03.429Z,115616
2017-06-28T12:36:05.463Z,116768
2017-06-28T12:37:07.506Z,120576
2017-06-28T12:38:09.545Z,115808
2017-06-28T12:39:11.585Z,108672
2017-06-28T12:40:13.619Z,106784
2017-06-28T12:41:15.657Z,105568
2017-06-28T12:42:18.029Z,104256
2017-06-28T12:43:20.070Z,111616
2017-06-28T12:44:22.112Z,129600
2017-06-28T12:45:24.492Z,133536
2017-06-28T12:46:26.885Z,127840
2017-06-28T12:47:28.921Z,126112
2017-06-28T12:48:30.955Z,126080
2017-06-28T12:49:33.001Z,127104
2017-06-28T12:50:35.057Z,121248
2017-06-28T12:51:37.433Z,122624
2017-06-28T12:52:39.464Z,124704
2017-06-28T12:53:41.502Z,127488
2017-06-28T12:54:43.542Z,127040
2017-06-28T12:55:45.588Z,121280
2017-06-28T12:56:47.624Z,128960
2017-06-28T12:57:49.658Z,124160
2017-06-28T12:58:51.701Z,127296
2017-06-28T12:59:53.744Z,112096
2017-06-28T13:00:56.116Z,109920
2017-06-28T13:01:58.160Z,99744
2017-06-28T13:03:00.189Z,55552
2017-06-28T13:04:02.579Z,123424
2017-06-28T13:05:04.624Z,122976
2017-06-28T13:06:06.664Z,113216
2017-06-28T13:07:08.708Z,109920
2017-06-28T13:08:10.746Z,110368
2017-06-28T13:09:13.121Z,115328
2017-06-28T13:10:15.168Z,102272
2017-06-28T13:11:17.203Z,94304
2017-06-28T13:12:19.244Z,92096
2017-06-28T13:13:21.285Z,41376
2017-06-28T13:14:23.664Z,36608
2017-06-28T13:15:25.703Z,31648
2017-06-28T13:16:27.742Z,30368
2017-06-28T13:17:30.121Z,32288
2017-06-28T13:18:32.170Z,37952
2017-06-28T13:19:34.542Z,39520
2017-06-28T13:20:36.580Z,41600
2017-06-28T13:21:38.612Z,44032
2017-06-28T13:22:40.646Z,45696
2017-06-28T13:23:42.686Z,48192
2017-06-28T13:24:44.732Z,45152
2017-06-28T13:25:46.779Z,42688
2017-06-28T13:26:48.813Z,41184
2017-06-28T13:27:50.841Z,41440
2017-06-28T13:28:52.887Z,43776
2017-06-28T13:29:55.303Z,42848
2017-06-28T13:30:57.337Z,44480
2017-06-28T13:31:59.373Z,47360
2017-06-28T13:33:01.738Z,51104
2017-06-28T13:34:03.778Z,52672
2017-06-28T13:35:05.821Z,43360
2017-06-28T13:36:07.864Z,42880
2017-06-28T13:37:10.239Z,41248
2017-06-28T13:38:12.277Z,57152
2017-06-28T13:39:14.315Z,76320
2017-06-28T13:40:16.352Z,59936
2017-06-28T13:41:18.390Z,48000
2017-06-28T13:42:20.438Z,51392
2017-06-28T13:43:22.482Z,54464
2017-06-28T13:44:24.522Z,56160
2017-06-28T13:45:26.893Z,57792
2017-06-28T13:46:28.936Z,56192
2017-06-28T13:47:30.967Z,53472
2017-06-28T13:48:33.001Z,47008
2017-06-28T13:49:35.039Z,46048
2017-06-28T13:50:37.078Z,43648
2017-06-28T13:51:39.120Z,40576
2017-06-28T13:52:41.157Z,38528
2017-06-28T13:53:43.200Z,37632
2017-06-28T13:54:45.243Z,35936
2017-06-28T13:55:47.281Z,36256
2017-06-28T13:56:49.316Z,35616
2017-06-28T13:57:51.354Z,34240
2017-06-28T13:58:53.391Z,33600
2017-06-28T13:59:55.425Z,33344
2017-06-28T14:00:57.817Z,35840
2017-06-28T14:01:59.850Z,36896
2017-06-28T14:03:01.887Z,37472
2017-06-28T14:04:03.926Z,38272
2017-06-28T14:05:06.338Z,35648
2017-06-28T14:06:08.377Z,31232
2017-06-28T14:07:10.408Z,29600
2017-06-28T14:08:12.452Z,33856
2017-06-28T14:09:14.492Z,34784
2017-06-28T14:10:16.863Z,33024
2017-06-28T14:11:18.909Z,32064
2017-06-28T14:12:20.945Z,30400
2017-06-28T14:13:22.986Z,29984
2017-06-28T14:14:25.023Z,30144
2017-06-28T14:15:27.051Z,31520
2017-06-28T14:16:29.088Z,32544
2017-06-28T14:17:31.120Z,34400
2017-06-28T14:18:33.155Z,36448
2017-06-28T14:19:35.191Z,35200
2017-06-28T14:20:37.230Z,37056
2017-06-28T14:21:39.258Z,43008
2017-06-28T14:22:41.297Z,72544
2017-06-28T14:23:43.324Z,42752
2017-06-28T14:24:45.367Z,77760
2017-06-28T14:25:47.393Z,43392
2017-06-28T14:26:49.437Z,44320
2017-06-28T14:27:51.505Z,38496
2017-06-28T14:28:53.533Z,34368
2017-06-28T14:29:55.576Z,31296
2017-06-28T14:30:57.613Z,28384
2017-06-28T14:31:59.645Z,26528
2017-06-28T14:33:01.685Z,26176
2017-06-28T14:34:03.710Z,25952
2017-06-28T14:35:05.754Z,27136
2017-06-28T14:36:07.785Z,28928
2017-06-28T14:37:09.822Z,30976
2017-06-28T14:38:11.861Z,30880
2017-06-28T14:39:13.901Z,32576
2017-06-28T14:40:15.937Z,31296
2017-06-28T14:41:17.969Z,30592
2017-06-28T14:42:20.004Z,28864
2017-06-28T14:43:22.048Z,29120
2017-06-28T14:44:24.078Z,29504
2017-06-28T14:45:26.113Z,32032
2017-06-28T14:46:28.142Z,51488
2017-06-28T14:47:30.181Z,45568
2017-06-28T14:48:32.225Z,51168
2017-06-28T14:49:34.610Z,50336
2017-06-28T14:50:36.997Z,42048
2017-06-28T14:51:39.035Z,34400
2017-06-28T14:52:41.104Z,32640
2017-06-28T14:53:43.150Z,30080
2017-06-28T14:54:45.192Z,26048
2017-06-28T14:55:47.229Z,22720
2017-06-28T14:56:49.269Z,20480
2017-06-28T14:57:51.296Z,18752
2017-06-28T14:58:53.328Z,17768
2017-06-28T14:59:55.365Z,18496
2017-06-28T15:00:57.430Z,20256
2017-06-28T15:01:59.473Z,22080
2017-06-28T15:03:01.511Z,23744
2017-06-28T15:04:03.547Z,27776
2017-06-28T15:05:05.926Z,22592
2017-06-28T15:06:07.959Z,22528
2017-06-28T15:07:10.003Z,24608
2017-06-28T15:08:12.074Z,28128
2017-06-28T15:09:14.106Z,29568
2017-06-28T15:10:16.146Z,27936
2017-06-28T15:11:18.183Z,28608
2017-06-28T15:12:20.215Z,22720
2017-06-28T15:13:22.249Z,21696
2017-06-28T15:14:24.291Z,21280
2017-06-28T15:15:26.676Z,20672
2017-06-28T15:16:28.711Z,18976
2017-06-28T15:17:30.747Z,17628
2017-06-28T15:18:32.792Z,17624
2017-06-28T15:19:34.830Z,19040
2017-06-28T15:20:36.864Z,20576
2017-06-28T15:21:38.897Z,21280
2017-06-28T15:22:40.931Z,21728
2017-06-28T15:23:42.960Z,23072
2017-06-28T15:24:45.336Z,24384
2017-06-28T15:25:47.370Z,33728
2017-06-28T15:26:49.405Z,31392
2017-06-28T15:27:51.779Z,29824
2017-06-28T15:28:53.840Z,28480
2017-06-28T15:29:55.867Z,26304
2017-06-28T15:30:57.892Z,22912
2017-06-28T15:32:00.265Z,21312
2017-06-28T15:33:02.295Z,20640
2017-06-28T15:34:04.362Z,20064
2017-06-28T15:35:06.396Z,19648
2017-06-28T15:36:08.429Z,19296
2017-06-28T15:37:10.468Z,18784
2017-06-28T15:38:12.496Z,18064
2017-06-28T15:39:14.535Z,16984
2017-06-28T15:40:16.588Z,15652
2017-06-28T15:41:18.625Z,14264
2017-06-28T15:42:20.993Z,12708
2017-06-28T15:43:23.022Z,11340
2017-06-28T15:44:25.387Z,10200
2017-06-28T15:45:27.419Z,9160
2017-06-28T15:46:29.455Z,8280
2017-06-28T15:47:31.497Z,7624
2017-06-28T15:48:33.903Z,7488
2017-06-28T15:49:36.614Z,7200
2017-06-28T15:50:38.646Z,6760
2017-06-28T15:51:41.015Z,6684
2017-06-28T15:52:43.044Z,5880
2017-06-28T15:53:45.412Z,5180
2017-06-28T15:54:47.782Z,5000
2017-06-28T15:55:49.826Z,5056
2017-06-28T15:56:51.851Z,5796
2017-06-28T15:57:54.243Z,7300
2017-06-28T15:58:56.972Z,8756
2017-06-28T15:59:59.341Z,9556
2017-06-28T16:01:01.804Z,9516
2017-06-28T16:02:05.214Z,9152
2017-06-28T16:03:07.595Z,8808
2017-06-28T16:04:09.630Z,8068
2017-06-28T16:05:11.667Z,7236
2017-06-28T16:06:13.697Z,6172
2017-06-28T16:07:15.728Z,5500
2017-06-28T16:08:18.045Z,5020
2017-06-28T16:09:20.417Z,4372
2017-06-28T16:10:22.780Z,4336
2017-06-28T16:11:24.817Z,4856
2017-06-28T16:12:26.839Z,5048
2017-06-28T16:13:28.877Z,5320
2017-06-28T16:14:30.915Z,6048
2017-06-28T16:15:32.969Z,6696
2017-06-28T16:16:34.991Z,6720
2017-06-28T16:17:37.028Z,6028
2017-06-28T16:18:39.391Z,5076
2017-06-28T16:19:42.882Z,4724
2017-06-28T16:20:44.914Z,4516
2017-06-28T16:21:46.955Z,5252
2017-06-28T16:22:49.008Z,7112
2017-06-28T16:23:51.413Z,9028
2017-06-28T16:24:53.452Z,10280
2017-06-28T16:25:55.842Z,11048
2017-06-28T16:26:57.867Z,11280
2017-06-28T16:27:59.903Z,11560
2017-06-28T16:29:01.930Z,12452
2017-06-28T16:30:03.963Z,13216
2017-06-28T16:31:05.993Z,13720
2017-06-28T16:32:08.018Z,14560
2017-06-28T16:33:10.046Z,14436
2017-06-28T16:34:12.424Z,13680
2017-06-28T16:35:14.459Z,12756
2017-06-28T16:36:16.495Z,11652
2017-06-28T16:37:18.530Z,10108
2017-06-28T16:38:20.568Z,7540
2017-06-28T16:39:22.606Z,5872
2017-06-28T16:40:24.654Z,5492
2017-06-28T16:41:26.688Z,5740
2017-06-28T16:42:28.748Z,6580
2017-06-28T16:43:30.781Z,7588
2017-06-28T16:44:33.158Z,7604
2017-06-28T16:45:35.215Z,7472
2017-06-28T16:46:37.662Z,8392
2017-06-28T16:47:40.858Z,9360
2017-06-28T16:48:44.332Z,8964
2017-06-28T16:49:47.648Z,8488
2017-06-28T16:50:54.587Z,8172
2017-06-28T16:51:57.509Z,7948
2017-06-28T16:53:00.398Z,8564
2017-06-28T16:54:02.429Z,9196
2017-06-28T16:55:04.483Z,7108
2017-06-28T16:56:06.511Z,4864
2017-06-28T16:57:08.886Z,4304
2017-06-28T16:58:10.924Z,4808
2017-06-28T16:59:12.970Z,5940
2017-06-28T17:00:14.997Z,6852
2017-06-28T17:01:17.387Z,7628
2017-06-28T17:02:19.420Z,8624
2017-06-28T17:03:21.460Z,9560
2017-06-28T17:04:23.506Z,9272
2017-06-28T17:05:25.543Z,8856
2017-06-28T17:06:27.581Z,8464
2017-06-28T17:07:29.941Z,7628
2017-06-28T17:08:31.978Z,6772
2017-06-28T17:09:34.023Z,5992
2017-06-28T17:10:36.410Z,5832
2017-06-28T17:11:38.449Z,6268
2017-06-28T17:12:40.478Z,6216
2017-06-28T17:13:42.517Z,5860
2017-06-28T17:14:45.222Z,6344
2017-06-28T17:15:47.263Z,7640
2017-06-28T17:16:49.301Z,8456
2017-06-28T17:17:51.667Z,8968
2017-06-28T17:18:54.388Z,8832
2017-06-28T17:19:56.429Z,8532
2017-06-28T17:20:58.798Z,8304
2017-06-28T17:22:00.837Z,7940
2017-06-28T17:23:02.881Z,7320
2017-06-28T17:24:04.908Z,6628
2017-06-28T17:25:06.941Z,6468
2017-06-28T17:26:08.989Z,6020
2017-06-28T17:27:11.014Z,4732
2017-06-28T17:28:13.039Z,3672
2017-06-28T17:29:15.070Z,2876
2017-06-28T17:30:17.436Z,2476
2017-06-28T17:31:19.458Z,2280
2017-06-28T17:32:21.487Z,1908
2017-06-28T17:33:23.530Z,1576
2017-06-28T17:34:25.907Z,1820
2017-06-28T17:35:28.269Z,2140
2017-06-28T17:36:30.294Z,2084
2017-06-28T17:37:32.321Z,2464
2017-06-28T17:38:34.349Z,2828
2017-06-28T17:39:37.069Z,2980
2017-06-28T17:40:39.128Z,3040
2017-06-28T17:41:41.173Z,3196
2017-06-28T17:42:43.193Z,3012
2017-06-28T17:43:45.246Z,3040
2017-06-28T17:44:47.958Z,3560
2017-06-28T17:45:49.981Z,4140
2017-06-28T17:46:52.008Z,4552
2017-06-28T17:47:54.370Z,4336
2017-06-28T17:48:57.085Z,3916
2017-06-28T17:49:59.455Z,3432
2017-06-28T17:51:01.475Z,3016
2017-06-28T17:52:03.502Z,2680
2017-06-28T17:53:05.546Z,2664
2017-06-28T17:54:07.572Z,2780
2017-06-28T17:55:09.599Z,3080
2017-06-28T17:56:11.963Z,3308
2017-06-28T17:57:13.989Z,2740
2017-06-28T17:58:16.019Z,2420
2017-06-28T17:59:18.039Z,2044
2017-06-28T18:00:20.401Z,1760
2017-06-28T18:01:22.426Z,1988
2017-06-28T18:02:24.815Z,2652
2017-06-28T18:03:26.842Z,3348
2017-06-28T18:04:28.880Z,3308
2017-06-28T18:05:30.939Z,2272
2017-06-28T18:06:33.307Z,1512
2017-06-28T18:07:35.325Z,1764
2017-06-28T18:08:37.687Z,2388
2017-06-28T18:09:39.722Z,2400
2017-06-28T18:10:41.758Z,2288
2017-06-28T18:11:43.786Z,2268
2017-06-28T18:12:45.814Z,2560
2017-06-28T18:13:47.842Z,3648
2017-06-28T18:14:50.214Z,4560
2017-06-28T18:15:52.234Z,4224
2017-06-28T18:16:54.264Z,3428
2017-06-28T18:17:56.282Z,2996
2017-06-28T18:18:58.315Z,2852
2017-06-28T18:20:00.335Z,3272
2017-06-28T18:21:02.371Z,3556
2017-06-28T18:22:04.742Z,3500
2017-06-28T18:23:07.103Z,3512
2017-06-28T18:24:09.466Z,3884
2017-06-28T18:25:11.491Z,4032
2017-06-28T18:26:13.514Z,3996
2017-06-28T18:27:15.540Z,3804
2017-06-28T18:28:17.563Z,3748
2017-06-28T18:29:19.587Z,3840
2017-06-28T18:30:21.966Z,4052
2017-06-28T18:31:23.984Z,4240
2017-06-28T18:32:26.009Z,4164
2017-06-28T18:33:28.054Z,4000
2017-06-28T18:34:30.079Z,3788
2017-06-28T18:35:32.103Z,3560
2017-06-28T18:36:34.127Z,3516
2017-06-28T18:37:36.149Z,3516
2017-06-28T18:38:38.170Z,3400
2017-06-28T18:39:40.550Z,3340
2017-06-28T18:40:42.577Z,3368
2017-06-28T18:41:44.612Z,3428
2017-06-28T18:42:46.636Z,3448
2017-06-28T18:43:49.003Z,3556
2017-06-28T18:44:51.032Z,3788
2017-06-28T18:45:53.054Z,3836
2017-06-28T18:46:55.079Z,3768
2017-06-28T18:47:57.442Z,3592
2017-06-28T18:48:59.470Z,3288
2017-06-28T18:50:01.500Z,2936
2017-06-28T18:51:03.879Z,2732
2017-06-28T18:52:05.908Z,2660
2017-06-28T18:53:07.935Z,2576
2017-06-28T18:54:09.961Z,2344
2017-06-28T18:55:11.982Z,2136
2017-06-28T18:56:14.349Z,2040
2017-06-28T18:57:16.383Z,1980
2017-06-28T18:58:18.408Z,1936
2017-06-28T18:59:20.428Z,1900
2017-06-28T19:00:22.450Z,1868
2017-06-28T19:01:24.477Z,1856
2017-06-28T19:02:26.852Z,1840
2017-06-28T19:03:28.885Z,1824
2017-06-28T19:04:30.915Z,1792
2017-06-28T19:05:32.939Z,1756
2017-06-28T19:06:34.955Z,1732
2017-06-28T19:07:37.317Z,1720
2017-06-28T19:08:39.341Z,1744
2017-06-28T19:09:41.372Z,1720
2017-06-28T19:10:43.443Z,1668
2017-06-28T19:11:45.471Z,1620
2017-06-28T19:12:47.501Z,1568
2017-06-28T19:13:49.522Z,1472
2017-06-28T19:14:51.543Z,1392
2017-06-28T19:15:53.573Z,1360
2017-06-28T19:16:55.608Z,1268
2017-06-28T19:17:57.634Z,1184
2017-06-28T19:18:59.656Z,1108
2017-06-28T19:20:01.676Z,1000
2017-06-28T19:21:04.050Z,932
2017-06-28T19:22:06.098Z,920
2017-06-28T19:23:08.808Z,904
2017-06-28T19:24:10.871Z,884
2017-06-28T19:25:12.889Z,856
2017-06-28T19:26:14.914Z,812
2017-06-28T19:27:17.272Z,752
2017-06-28T19:28:19.290Z,708
2017-06-28T19:29:21.309Z,660
2017-06-28T19:30:23.696Z,620
2017-06-28T19:31:26.397Z,576
2017-06-28T19:32:28.416Z,548
2017-06-28T19:33:30.439Z,520
2017-06-28T19:34:32.459Z,496
2017-06-28T19:35:34.820Z,468
2017-06-28T19:36:36.846Z,448
2017-06-28T19:37:38.862Z,424
2017-06-28T19:38:40.884Z,408
2017-06-28T19:39:42.903Z,388
2017-06-28T19:40:44.928Z,364
2017-06-28T19:41:46.960Z,344
2017-06-28T19:42:49.026Z,328
2017-06-28T19:43:51.082Z,308
2017-06-28T19:44:53.108Z,288
2017-06-28T19:45:55.134Z,264
2017-06-28T19:46:57.162Z,244
2017-06-28T19:47:59.185Z,224
2017-06-28T19:49:01.545Z,208
2017-06-28T19:50:03.566Z,192
2017-06-28T19:51:05.595Z,180
2017-06-28T19:52:07.960Z,164
2017-06-28T19:53:09.995Z,152
2017-06-28T19:54:12.014Z,144
2017-06-28T19:55:14.038Z,128
2017-06-28T19:56:16.067Z,120
2017-06-28T19:57:18.080Z,112
2017-06-28T19:58:20.451Z,100
2017-06-28T19:59:22.486Z,92
2017-06-28T20:00:24.506Z,84
2017-06-28T20:01:26.523Z,76
2017-06-28T20:02:28.538Z,68
2017-06-28T20:03:30.565Z,64
2017-06-28T20:04:32.587Z,60
2017-06-28T20:05:34.611Z,48
2017-06-28T20:06:36.631Z,44
2017-06-28T20:07:38.651Z,44
2017-06-28T20:08:41.045Z,36
2017-06-28T20:09:43.413Z,32
2017-06-28T20:10:45.801Z,32
2017-06-28T20:11:47.822Z,28
2017-06-28T20:12:49.838Z,24
2017-06-28T20:13:51.858Z,24
2017-06-28T20:14:53.879Z,16
2017-06-28T20:15:55.899Z,16
2017-06-28T20:16:57.919Z,16
2017-06-28T20:18:00.280Z,12
2017-06-28T20:19:02.304Z,12
2017-06-28T20:20:04.654Z,8
2017-06-28T20:21:06.685Z,12
2017-06-28T20:22:08.698Z,8
2017-06-28T20:23:11.063Z,8
2017-06-28T20:24:13.079Z,4
2017-06-28T20:25:15.110Z,8
2017-06-28T20:26:17.129Z,4
2017-06-28T20:27:19.487Z,4
2017-06-28T20:28:21.507Z,4
2017-06-28T20:29:23.869Z,0
2017-06-28T20:30:25.900Z,4
2017-06-28T20:31:27.924Z,4
2017-06-28T20:32:29.973Z,4
2017-06-28T20:33:32.327Z,4
2017-06-28T20:34:34.345Z,4
2017-06-28T20:35:36.365Z,0
2017-06-28T20:36:38.383Z,0
2017-06-28T20:37:40.753Z,0
2017-06-28T20:38:42.779Z,0
2017-06-28T20:39:44.804Z,0
2017-06-28T20:40:47.163Z,0
2017-06-28T20:41:49.192Z,0
2017-06-28T20:42:51.564Z,0
2017-06-28T20:43:53.581Z,0
2017-06-28T20:44:55.599Z,0
2017-06-28T20:45:57.960Z,0
2017-06-28T20:46:59.984Z,0
2017-06-28T20:48:02.011Z,0
2017-06-28T20:49:04.071Z,0
2017-06-28T20:50:06.428Z,0
2017-06-28T20:51:08.446Z,0
2017-06-28T20:52:10.466Z,0
2017-06-28T20:53:12.486Z,0
2017-06-28T20:54:14.509Z,0
2017-06-28T20:55:16.528Z,0
2017-06-28T20:56:18.548Z,0
2017-06-28T20:57:20.703Z,0
2017-06-28T20:58:22.848Z,0
2017-06-28T20:59:24.869Z,0
2017-06-28T21:00:27.571Z,0
2017-06-28T21:01:29.589Z,0
2017-06-28T21:02:31.613Z,0
2017-06-28T21:03:33.625Z,0
2017-06-28T21:04:35.642Z,0
2017-06-28T21:05:37.665Z,0
2017-06-28T21:06:39.681Z,0
2017-06-28T21:07:41.707Z,0
2017-06-28T21:08:44.060Z,0
2017-06-28T21:09:46.072Z,0
2017-06-28T21:10:48.446Z,0
2017-06-28T21:11:50.497Z,0
2017-06-28T21:12:52.516Z,0
2017-06-28T21:13:55.207Z,0
2017-06-28T21:14:57.563Z,0
2017-06-28T21:15:59.579Z,0
2017-06-28T21:17:01.594Z,0
2017-06-28T21:18:03.615Z,0
2017-06-28T21:19:05.640Z,0
2017-06-28T21:20:07.663Z,0
2017-06-28T21:21:09.676Z,0
2017-06-28T21:22:11.705Z,0
2017-06-28T21:23:13.724Z,0
2017-06-28T21:24:15.745Z,0
2017-06-28T21:25:18.109Z,0
2017-06-28T21:26:20.136Z,0
2017-06-28T21:27:22.486Z,0
2017-06-28T21:28:24.499Z,0
2017-06-28T21:29:26.861Z,0